createdAt,value
2023-05-09T00:00:33.557Z,0.00
2023-05-09T00:01:33.572Z,0.00
2023-05-09T00:02:33.579Z,0.00
2023-05-09T00:03:33.556Z,0.00
2023-05-09T00:04:33.571Z,0.00
2023-05-09T00:05:33.553Z,0.00
2023-05-09T00:06:33.629Z,0.00
2023-05-09T00:07:33.520Z,0.00
2023-05-09T00:08:33.492Z,0.00
2023-05-09T00:09:33.504Z,0.00
2023-05-09T00:10:33.495Z,0.00
2023-05-09T00:11:33.495Z,0.00
2023-05-09T00:12:33.530Z,0.00
2023-05-09T00:13:33.503Z,0.00
2023-05-09T00:14:33.613Z,0.00
2023-05-09T00:15:33.462Z,0.00
2023-05-09T00:16:33.467Z,0.00
2023-05-09T00:17:33.498Z,0.00
2023-05-09T00:18:33.422Z,0.00
2023-05-09T00:19:33.489Z,0.00
2023-05-09T00:20:33.415Z,0.00
2023-05-09T00:21:33.446Z,0.00
2023-05-09T00:22:33.489Z,0.00
2023-05-09T00:23:33.420Z,0.00
2023-05-09T00:24:33.388Z,0.00
2023-05-09T00:25:33.450Z,0.00
2023-05-09T00:26:33.410Z,0.00
2023-05-09T00:27:33.387Z,0.00
2023-05-09T00:28:33.365Z,0.00
2023-05-09T00:29:33.366Z,0.00
2023-05-09T00:30:33.372Z,0.00
2023-05-09T00:31:33.390Z,0.00
2023-05-09T00:32:33.418Z,0.00
2023-05-09T00:33:33.398Z,0.00
2023-05-09T00:34:33.330Z,0.00
2023-05-09T00:35:33.350Z,0.00
2023-05-09T00:36:33.313Z,0.00
2023-05-09T00:37:33.323Z,0.00
2023-05-09T00:38:33.385Z,0.00
2023-05-09T00:39:33.327Z,0.00
2023-05-09T00:40:33.275Z,0.00
2023-05-09T00:41:33.298Z,0.00
2023-05-09T00:42:33.283Z,0.00
2023-05-09T00:43:33.301Z,0.00
2023-05-09T00:44:33.302Z,0.00
2023-05-09T00:45:33.278Z,0.00
2023-05-09T00:46:33.277Z,0.00
2023-05-09T00:47:33.416Z,0.00
2023-05-09T00:48:33.262Z,0.00
2023-05-09T00:49:33.282Z,0.00
2023-05-09T00:50:33.239Z,0.00
2023-05-09T00:51:33.244Z,0.00
2023-05-09T00:52:33.238Z,0.00
2023-05-09T00:53:33.286Z,0.00
2023-05-09T00:54:33.286Z,0.00
2023-05-09T00:55:33.241Z,0.00
2023-05-09T00:56:33.176Z,0.00
2023-05-09T00:57:33.196Z,0.00
2023-05-09T00:58:33.192Z,0.00
2023-05-09T00:59:33.185Z,0.00
2023-05-09T01:00:33.178Z,0.00
2023-05-09T01:01:33.235Z,0.00
2023-05-09T01:02:33.264Z,0.00
2023-05-09T01:03:33.234Z,0.00
2023-05-09T01:04:33.142Z,0.00
2023-05-09T01:05:33.207Z,0.00
2023-05-09T01:06:33.124Z,0.00
2023-05-09T01:07:33.148Z,0.00
2023-05-09T01:08:33.109Z,0.00
2023-05-09T01:09:33.112Z,0.00
2023-05-09T01:10:33.199Z,0.00
2023-05-09T01:11:33.129Z,0.00
2023-05-09T01:12:33.086Z,0.00
2023-05-09T01:13:33.120Z,0.00
2023-05-09T01:14:33.088Z,0.00
2023-05-09T01:15:33.134Z,0.00
2023-05-09T01:16:33.060Z,0.00
2023-05-09T01:17:33.114Z,0.00
2023-05-09T01:18:33.082Z,0.00
2023-05-09T01:19:33.102Z,0.00
2023-05-09T01:20:33.027Z,0.00
2023-05-09T01:21:33.059Z,0.00
2023-05-09T01:22:33.026Z,0.00
2023-05-09T01:23:33.031Z,0.00
2023-05-09T01:24:33.019Z,0.00
2023-05-09T01:25:33.048Z,0.00
2023-05-09T01:26:33.089Z,0.00
2023-05-09T01:27:33.009Z,0.00
2023-05-09T01:28:32.987Z,0.00
2023-05-09T01:29:33.018Z,0.00
2023-05-09T01:30:32.987Z,0.00
2023-05-09T01:31:33.006Z,0.00
2023-05-09T01:32:32.977Z,0.00
2023-05-09T01:33:32.976Z,0.00
2023-05-09T01:34:32.951Z,0.00
2023-05-09T01:35:32.967Z,0.00
2023-05-09T01:36:32.962Z,0.00
2023-05-09T01:37:33.008Z,0.00
2023-05-09T01:38:32.924Z,0.00
2023-05-09T01:39:32.936Z,0.00
2023-05-09T01:40:32.893Z,0.00
2023-05-09T01:41:32.931Z,0.00
2023-05-09T01:42:33.011Z,0.00
2023-05-09T01:43:32.897Z,0.00
2023-05-09T01:44:32.875Z,0.00
2023-05-09T01:45:32.921Z,0.00
2023-05-09T01:46:32.874Z,0.00
2023-05-09T01:47:32.893Z,0.00
2023-05-09T01:48:32.849Z,0.00
2023-05-09T01:49:32.862Z,0.00
2023-05-09T01:50:32.824Z,0.00
2023-05-09T01:51:32.842Z,0.00
2023-05-09T01:52:32.835Z,0.00
2023-05-09T01:53:32.824Z,0.00
2023-05-09T01:54:32.797Z,0.00
2023-05-09T01:55:32.823Z,0.00
2023-05-09T01:56:32.787Z,0.00
2023-05-09T01:57:32.792Z,0.00
2023-05-09T01:58:32.877Z,0.00
2023-05-09T01:59:32.790Z,0.00
2023-05-09T02:00:32.753Z,0.00
2023-05-09T02:01:32.764Z,0.00
2023-05-09T02:02:32.816Z,0.00
2023-05-09T02:03:32.791Z,0.00
2023-05-09T02:04:32.735Z,0.00
2023-05-09T02:05:32.725Z,0.00
2023-05-09T02:06:32.760Z,0.00
2023-05-09T02:07:32.767Z,0.00
2023-05-09T02:08:32.718Z,0.00
2023-05-09T02:09:32.742Z,0.00
2023-05-09T02:10:32.686Z,0.00
2023-05-09T02:11:32.725Z,0.00
2023-05-09T02:12:32.694Z,0.00
2023-05-09T02:13:32.695Z,0.00
2023-05-09T02:14:32.777Z,0.00
2023-05-09T02:15:33.072Z,0.00
2023-05-09T02:16:32.681Z,0.00
2023-05-09T02:17:32.659Z,0.00
2023-05-09T02:18:32.750Z,0.00
2023-05-09T02:19:32.651Z,0.00
2023-05-09T02:20:32.634Z,0.00
2023-05-09T02:21:32.670Z,0.00
2023-05-09T02:22:32.606Z,0.00
2023-05-09T02:23:32.611Z,0.00
2023-05-09T02:24:32.594Z,0.00
2023-05-09T02:25:32.611Z,0.00
2023-05-09T02:26:32.599Z,0.00
2023-05-09T02:27:32.609Z,0.00
2023-05-09T02:28:32.562Z,0.00
2023-05-09T02:29:32.573Z,0.00
2023-05-09T02:30:32.667Z,0.00
2023-05-09T02:31:32.602Z,0.00
2023-05-09T02:32:32.624Z,0.00
2023-05-09T02:33:32.546Z,0.00
2023-05-09T02:34:32.519Z,0.00
2023-05-09T02:35:32.582Z,0.00
2023-05-09T02:36:32.521Z,0.00
2023-05-09T02:37:32.624Z,0.00
2023-05-09T02:38:32.526Z,0.00
2023-05-09T02:39:32.518Z,0.00
2023-05-09T02:40:32.502Z,0.00
2023-05-09T02:41:32.503Z,0.00
2023-05-09T02:42:32.491Z,0.00
2023-05-09T02:43:32.505Z,0.00
2023-05-09T02:44:32.452Z,0.00
2023-05-09T02:45:32.467Z,0.00
2023-05-09T02:46:32.616Z,0.00
2023-05-09T02:47:32.471Z,0.00
2023-05-09T02:48:32.427Z,0.00
2023-05-09T02:49:32.897Z,0.00
2023-05-09T02:50:32.436Z,0.00
2023-05-09T02:51:32.446Z,1.00
2023-05-09T02:52:32.419Z,1.00
2023-05-09T02:53:32.410Z,1.00
2023-05-09T02:54:32.387Z,1.00
2023-05-09T02:55:32.391Z,1.00
2023-05-09T02:56:32.411Z,0.00
2023-05-09T02:57:32.407Z,0.00
2023-05-09T02:58:32.369Z,0.00
2023-05-09T02:59:32.382Z,1.00
2023-05-09T03:00:32.400Z,1.00
2023-05-09T03:01:32.424Z,1.00
2023-05-09T03:02:32.532Z,1.00
2023-05-09T03:03:32.421Z,1.00
2023-05-09T03:04:32.352Z,2.00
2023-05-09T03:05:32.360Z,1.00
2023-05-09T03:06:32.307Z,2.00
2023-05-09T03:07:32.351Z,2.00
2023-05-09T03:08:32.341Z,2.00
2023-05-09T03:09:32.309Z,3.00
2023-05-09T03:10:32.294Z,3.00
2023-05-09T03:11:32.336Z,4.00
2023-05-09T03:12:32.306Z,4.00
2023-05-09T03:13:32.280Z,4.00
2023-05-09T03:14:32.287Z,7.00
2023-05-09T03:15:32.285Z,6.00
2023-05-09T03:16:32.273Z,8.00
2023-05-09T03:17:32.318Z,8.00
2023-05-09T03:18:32.335Z,10.00
2023-05-09T03:19:32.255Z,11.00
2023-05-09T03:20:32.229Z,12.00
2023-05-09T03:21:32.251Z,15.00
2023-05-09T03:22:32.212Z,17.00
2023-05-09T03:23:32.263Z,19.00
2023-05-09T03:24:32.218Z,21.00
2023-05-09T03:25:32.593Z,21.00
2023-05-09T03:26:32.201Z,26.00
2023-05-09T03:27:32.198Z,29.00
2023-05-09T03:28:32.178Z,33.00
2023-05-09T03:29:32.188Z,37.00
2023-05-09T03:30:32.197Z,41.00
2023-05-09T03:31:32.256Z,44.00
2023-05-09T03:32:32.200Z,49.00
2023-05-09T03:33:32.170Z,54.00
2023-05-09T03:34:32.238Z,58.00
2023-05-09T03:35:32.215Z,65.00
2023-05-09T03:36:32.165Z,70.00
2023-05-09T03:37:32.167Z,77.00
2023-05-09T03:38:32.208Z,85.00
2023-05-09T03:39:32.122Z,92.00
2023-05-09T03:40:32.118Z,101.00
2023-05-09T03:41:32.134Z,111.00
2023-05-09T03:42:32.143Z,118.00
2023-05-09T03:43:32.127Z,129.00
2023-05-09T03:44:32.094Z,138.00
2023-05-09T03:45:32.093Z,148.00
2023-05-09T03:46:32.176Z,160.00
2023-05-09T03:47:32.142Z,171.00
2023-05-09T03:48:32.078Z,183.00
2023-05-09T03:49:32.055Z,196.00
2023-05-09T03:50:32.124Z,210.00
2023-05-09T03:51:32.055Z,228.00
2023-05-09T03:52:32.057Z,245.00
2023-05-09T03:53:32.081Z,262.00
2023-05-09T03:54:32.015Z,280.00
2023-05-09T03:55:32.054Z,298.00
2023-05-09T03:56:32.022Z,318.00
2023-05-09T03:57:32.063Z,339.00
2023-05-09T03:58:32.010Z,362.00
2023-05-09T03:59:32.007Z,382.00
2023-05-09T04:00:32.001Z,404.00
2023-05-09T04:01:32.018Z,428.00
2023-05-09T04:02:32.128Z,456.00
2023-05-09T04:03:32.141Z,490.00
2023-05-09T04:04:31.955Z,538.00
2023-05-09T04:05:32.053Z,575.00
2023-05-09T04:06:32.044Z,632.00
2023-05-09T04:07:31.992Z,687.00
2023-05-09T04:08:31.931Z,711.00
2023-05-09T04:09:31.951Z,717.00
2023-05-09T04:10:31.926Z,818.00
2023-05-09T04:11:31.951Z,996.00
2023-05-09T04:12:31.924Z,1134.00
2023-05-09T04:13:31.979Z,1235.00
2023-05-09T04:14:31.912Z,1442.00
2023-05-09T04:15:31.913Z,1857.00
2023-05-09T04:16:31.918Z,2118.00
2023-05-09T04:17:31.905Z,2346.00
2023-05-09T04:18:31.891Z,2430.00
2023-05-09T04:19:31.927Z,2542.00
2023-05-09T04:20:31.848Z,2663.00
2023-05-09T04:21:31.879Z,2730.00
2023-05-09T04:22:31.936Z,2685.00
2023-05-09T04:23:31.857Z,2569.00
2023-05-09T04:24:31.851Z,2625.00
2023-05-09T04:25:31.851Z,2659.00
2023-05-09T04:26:31.811Z,2628.00
2023-05-09T04:27:31.819Z,2715.00
2023-05-09T04:28:31.827Z,3084.00
2023-05-09T04:29:31.792Z,3269.00
2023-05-09T04:30:31.816Z,3400.00
2023-05-09T04:31:31.832Z,3623.00
2023-05-09T04:32:31.850Z,3811.00
2023-05-09T04:33:31.768Z,3827.00
2023-05-09T04:34:31.770Z,3704.00
2023-05-09T04:35:31.761Z,3699.00
2023-05-09T04:36:31.735Z,3649.00
2023-05-09T04:37:31.775Z,3669.00
2023-05-09T04:38:31.856Z,3945.00
2023-05-09T04:39:31.719Z,4380.00
2023-05-09T04:40:31.714Z,5135.00
2023-05-09T04:41:31.729Z,5221.00
2023-05-09T04:42:31.690Z,4721.00
2023-05-09T04:43:31.733Z,4717.00
2023-05-09T04:44:31.687Z,4848.00
2023-05-09T04:45:31.708Z,5150.00
2023-05-09T04:46:31.692Z,5251.00
2023-05-09T04:47:31.694Z,4977.00
2023-05-09T04:48:31.705Z,4848.00
2023-05-09T04:49:31.759Z,4995.00
2023-05-09T04:50:31.655Z,5128.00
2023-05-09T04:51:31.755Z,5341.00
2023-05-09T04:52:31.649Z,5469.00
2023-05-09T04:53:31.620Z,5382.00
2023-05-09T04:54:31.696Z,5775.00
2023-05-09T04:55:31.605Z,6316.00
2023-05-09T04:56:31.584Z,6391.00
2023-05-09T04:57:31.610Z,6394.00
2023-05-09T04:58:31.671Z,6586.00
2023-05-09T04:59:31.579Z,6292.00
2023-05-09T05:00:31.578Z,6150.00
2023-05-09T05:01:31.609Z,6649.00
2023-05-09T05:02:31.597Z,6692.00
2023-05-09T05:03:31.580Z,6678.00
2023-05-09T05:04:31.551Z,6843.00
2023-05-09T05:05:33.674Z,6972.00
2023-05-09T05:06:31.508Z,7191.00
2023-05-09T05:07:31.520Z,7631.00
2023-05-09T05:08:31.513Z,7849.00
2023-05-09T05:09:31.521Z,7753.00
2023-05-09T05:10:31.574Z,7776.00
2023-05-09T05:11:31.504Z,7958.00
2023-05-09T05:12:31.511Z,7937.00
2023-05-09T05:13:31.483Z,7992.00
2023-05-09T05:14:31.458Z,8172.00
2023-05-09T05:15:31.464Z,8506.00
2023-05-09T05:16:31.459Z,8666.00
2023-05-09T05:17:31.490Z,8786.00
2023-05-09T05:18:31.451Z,8776.00
2023-05-09T05:19:31.455Z,8810.00
2023-05-09T05:20:31.402Z,8869.00
2023-05-09T05:21:31.448Z,9294.00
2023-05-09T05:22:32.766Z,9614.00
2023-05-09T05:23:31.401Z,9305.00
2023-05-09T05:24:31.398Z,9386.00
2023-05-09T05:25:31.426Z,9766.00
2023-05-09T05:26:31.461Z,9916.00
2023-05-09T05:27:31.362Z,10314.00
2023-05-09T05:28:31.608Z,10314.00
2023-05-09T05:29:31.351Z,10494.00
2023-05-09T05:30:34.016Z,9969.00
2023-05-09T05:31:31.384Z,6100.00
2023-05-09T05:32:31.351Z,5398.00
2023-05-09T05:33:31.308Z,5661.00
2023-05-09T05:34:31.325Z,4692.00
2023-05-09T05:35:31.296Z,4181.00
2023-05-09T05:36:31.272Z,4171.00
2023-05-09T05:37:31.307Z,3945.00
2023-05-09T05:38:31.260Z,3785.00
2023-05-09T05:39:31.289Z,3751.00
2023-05-09T05:40:31.268Z,3747.00
2023-05-09T05:41:31.251Z,3823.00
2023-05-09T05:42:31.313Z,4040.00
2023-05-09T05:43:31.227Z,4497.00
2023-05-09T05:44:31.260Z,6139.00
2023-05-09T05:45:31.301Z,4973.00
2023-05-09T05:46:31.230Z,5816.00
2023-05-09T05:47:31.252Z,10544.00
2023-05-09T05:48:31.253Z,10401.00
2023-05-09T05:49:31.218Z,10088.00
2023-05-09T05:50:31.217Z,5682.00
2023-05-09T05:51:31.196Z,5316.00
2023-05-09T05:52:31.181Z,5328.00
2023-05-09T05:53:32.684Z,6006.00
2023-05-09T05:54:31.146Z,7489.00
2023-05-09T05:55:31.155Z,7930.00
2023-05-09T05:56:31.134Z,9484.00
2023-05-09T05:57:31.176Z,7236.00
2023-05-09T05:58:31.208Z,6520.00
2023-05-09T05:59:31.198Z,6169.00
2023-05-09T06:00:31.076Z,5441.00
2023-05-09T06:01:31.106Z,4764.00
2023-05-09T06:02:31.339Z,4605.00
2023-05-09T06:03:31.295Z,4596.00
2023-05-09T06:04:31.059Z,4659.00
2023-05-09T06:05:31.066Z,4871.00
2023-05-09T06:06:31.067Z,4931.00
2023-05-09T06:07:31.042Z,5097.00
2023-05-09T06:08:31.062Z,7027.00
2023-05-09T06:09:31.054Z,8062.00
2023-05-09T06:10:30.999Z,10074.00
2023-05-09T06:11:31.008Z,12388.00
2023-05-09T06:12:31.019Z,11138.00
2023-05-09T06:13:31.008Z,5187.00
2023-05-09T06:14:31.058Z,4887.00
2023-05-09T06:15:31.004Z,4726.00
2023-05-09T06:16:31.037Z,6531.00
2023-05-09T06:17:30.973Z,5057.00
2023-05-09T06:18:30.931Z,6772.00
2023-05-09T06:19:30.993Z,13170.00
2023-05-09T06:20:30.926Z,17243.00
2023-05-09T06:21:30.924Z,16086.00
2023-05-09T06:22:30.929Z,17062.00
2023-05-09T06:23:30.904Z,17921.00
2023-05-09T06:24:35.835Z,17420.00
2023-05-09T06:25:31.913Z,14032.00
2023-05-09T06:26:30.867Z,17001.00
2023-05-09T06:27:30.904Z,16691.00
2023-05-09T06:28:30.884Z,15836.00
2023-05-09T06:29:30.887Z,16639.00
2023-05-09T06:30:30.929Z,21972.00
2023-05-09T06:31:30.930Z,21958.00
2023-05-09T06:32:30.893Z,22456.00
2023-05-09T06:33:30.832Z,21509.00
2023-05-09T06:34:30.840Z,21611.00
2023-05-09T06:35:30.815Z,22293.00
2023-05-09T06:36:30.840Z,21271.00
2023-05-09T06:37:30.806Z,21127.00
2023-05-09T06:38:30.801Z,21618.00
2023-05-09T06:39:30.828Z,20411.00
2023-05-09T06:40:30.782Z,20335.00
2023-05-09T06:41:30.799Z,20849.00
2023-05-09T06:42:30.752Z,21030.00
2023-05-09T06:43:30.759Z,21409.00
2023-05-09T06:44:30.731Z,22057.00
2023-05-09T06:45:30.771Z,20308.00
2023-05-09T06:46:30.899Z,19558.00
2023-05-09T06:47:30.766Z,21114.00
2023-05-09T06:48:30.713Z,21257.00
2023-05-09T06:49:30.761Z,21921.00
2023-05-09T06:50:32.835Z,20687.00
2023-05-09T06:51:30.704Z,19357.00
2023-05-09T06:52:30.683Z,18461.00
2023-05-09T06:53:30.690Z,17230.00
2023-05-09T06:54:30.691Z,16041.00
2023-05-09T06:55:30.673Z,15594.00
2023-05-09T06:56:30.659Z,15188.00
2023-05-09T06:57:30.673Z,15213.00
2023-05-09T06:58:30.643Z,11596.00
2023-05-09T06:59:30.687Z,11479.00
2023-05-09T07:00:30.639Z,12915.00
2023-05-09T07:01:30.655Z,12924.00
2023-05-09T07:02:30.750Z,10204.00
2023-05-09T07:03:30.641Z,11537.00
2023-05-09T07:04:30.606Z,12301.00
2023-05-09T07:05:30.632Z,12578.00
2023-05-09T07:06:30.587Z,12304.00
2023-05-09T07:07:30.604Z,12266.00
2023-05-09T07:08:30.634Z,12196.00
2023-05-09T07:09:30.589Z,12281.00
2023-05-09T07:10:30.568Z,12123.00
2023-05-09T07:11:30.568Z,12272.00
2023-05-09T07:12:30.541Z,12183.00
2023-05-09T07:13:30.594Z,12533.00
2023-05-09T07:14:30.546Z,12963.00
2023-05-09T07:15:41.103Z,12907.00
2023-05-09T07:16:31.589Z,13118.00
2023-05-09T07:17:30.562Z,8578.00
2023-05-09T07:18:30.615Z,8870.00
2023-05-09T07:19:30.554Z,8487.00
2023-05-09T07:20:30.489Z,8583.00
2023-05-09T07:21:30.504Z,8648.00
2023-05-09T07:22:32.140Z,7760.00
2023-05-09T07:23:30.510Z,7628.00
2023-05-09T07:24:30.463Z,7750.00
2023-05-09T07:25:30.479Z,8456.00
2023-05-09T07:26:30.485Z,10500.00
2023-05-09T07:27:30.475Z,9987.00
2023-05-09T07:28:30.501Z,12287.00
2023-05-09T07:29:30.453Z,11031.00
2023-05-09T07:30:30.449Z,11551.00
2023-05-09T07:31:30.445Z,9969.00
2023-05-09T07:32:30.460Z,11284.00
2023-05-09T07:33:30.427Z,11198.00
2023-05-09T07:34:30.562Z,11159.00
2023-05-09T07:35:30.425Z,10461.00
2023-05-09T07:36:30.477Z,9866.00
2023-05-09T07:37:30.407Z,10977.00
2023-05-09T07:38:30.372Z,11102.00
2023-05-09T07:39:30.401Z,11151.00
2023-05-09T07:40:30.369Z,11052.00
2023-05-09T07:41:30.371Z,11129.00
2023-05-09T07:42:30.423Z,11166.00
2023-05-09T07:43:30.348Z,11350.00
2023-05-09T07:44:30.341Z,11383.00
2023-05-09T07:45:30.377Z,11476.00
2023-05-09T07:46:30.392Z,11455.00
2023-05-09T07:47:30.361Z,11469.00
2023-05-09T07:48:30.321Z,11692.00
2023-05-09T07:49:30.324Z,11966.00
2023-05-09T07:50:31.050Z,11286.00
2023-05-09T07:51:30.303Z,10950.00
2023-05-09T07:52:30.306Z,7082.00
2023-05-09T07:53:30.302Z,6692.00
2023-05-09T07:54:30.259Z,9015.00
2023-05-09T07:55:30.279Z,10911.00
2023-05-09T07:56:30.258Z,11033.00
2023-05-09T07:57:30.264Z,11550.00
2023-05-09T07:58:30.268Z,12231.00
2023-05-09T07:59:30.253Z,12272.00
2023-05-09T08:00:31.049Z,7473.00
2023-05-09T08:01:30.241Z,8066.00
2023-05-09T08:02:30.283Z,9352.00
2023-05-09T08:03:30.304Z,5702.00
2023-05-09T08:04:30.259Z,5325.00
2023-05-09T08:05:30.208Z,4983.00
2023-05-09T08:06:30.278Z,4794.00
2023-05-09T08:07:30.222Z,4631.00
2023-05-09T08:08:30.188Z,4490.00
2023-05-09T08:09:30.179Z,4404.00
2023-05-09T08:10:30.158Z,4372.00
2023-05-09T08:11:30.189Z,4366.00
2023-05-09T08:12:30.139Z,4395.00
2023-05-09T08:13:30.238Z,4477.00
2023-05-09T08:14:30.124Z,4571.00
2023-05-09T08:15:30.147Z,4654.00
2023-05-09T08:16:30.263Z,4728.00
2023-05-09T08:17:30.197Z,4766.00
2023-05-09T08:18:30.095Z,4763.00
2023-05-09T08:19:30.126Z,4736.00
2023-05-09T08:20:30.081Z,4755.00
2023-05-09T08:21:30.102Z,4768.00
2023-05-09T08:22:30.167Z,4759.00
2023-05-09T08:23:30.091Z,4647.00
2023-05-09T08:24:30.069Z,4463.00
2023-05-09T08:25:30.212Z,4246.00
2023-05-09T08:26:30.045Z,4042.00
2023-05-09T08:27:30.057Z,3887.00
2023-05-09T08:28:30.056Z,3898.00
2023-05-09T08:29:30.070Z,4049.00
2023-05-09T08:30:30.018Z,4264.00
2023-05-09T08:31:30.116Z,4453.00
2023-05-09T08:32:30.045Z,5478.00
2023-05-09T08:33:30.015Z,4805.00
2023-05-09T08:34:29.992Z,4884.00
2023-05-09T08:35:30.041Z,5063.00
2023-05-09T08:36:29.989Z,5155.00
2023-05-09T08:37:30.029Z,4954.00
2023-05-09T08:38:30.052Z,5129.00
2023-05-09T08:39:30.032Z,5952.00
2023-05-09T08:40:29.982Z,5767.00
2023-05-09T08:41:29.963Z,5569.00
2023-05-09T08:42:29.942Z,5681.00
2023-05-09T08:43:29.948Z,5576.00
2023-05-09T08:44:29.932Z,6870.00
2023-05-09T08:45:30.038Z,6348.00
2023-05-09T08:46:29.987Z,5596.00
2023-05-09T08:47:29.963Z,9906.00
2023-05-09T08:48:29.922Z,6945.00
2023-05-09T08:49:29.938Z,10159.00
2023-05-09T08:50:29.902Z,12775.00
2023-05-09T08:51:29.905Z,14151.00
2023-05-09T08:52:29.910Z,14767.00
2023-05-09T08:53:29.915Z,14637.00
2023-05-09T08:54:29.983Z,15160.00
2023-05-09T08:55:29.881Z,16063.00
2023-05-09T08:56:29.837Z,15760.00
2023-05-09T08:57:29.852Z,15511.00
2023-05-09T08:58:29.824Z,15298.00
2023-05-09T08:59:29.856Z,15290.00
2023-05-09T09:00:29.812Z,16346.00
2023-05-09T09:01:29.861Z,16989.00
2023-05-09T09:02:29.893Z,17434.00
2023-05-09T09:03:29.843Z,19003.00
2023-05-09T09:04:29.839Z,14916.00
2023-05-09T09:06:29.798Z,5671.00
2023-05-09T09:07:31.171Z,5556.00
2023-05-09T09:08:29.778Z,5603.00
2023-05-09T09:09:29.765Z,4866.00
2023-05-09T09:10:29.905Z,4640.00
2023-05-09T09:11:29.766Z,4427.00
2023-05-09T09:12:29.733Z,4354.00
2023-05-09T09:13:29.826Z,4437.00
2023-05-09T09:14:29.720Z,4620.00
2023-05-09T09:15:29.753Z,5355.00
2023-05-09T09:16:29.752Z,4841.00
2023-05-09T09:17:29.741Z,5113.00
2023-05-09T09:18:29.686Z,4339.00
2023-05-09T09:19:29.704Z,4393.00
2023-05-09T09:20:29.692Z,4600.00
2023-05-09T09:21:29.703Z,4783.00
2023-05-09T09:22:29.666Z,4629.00
2023-05-09T09:23:29.683Z,4506.00
2023-05-09T09:24:29.652Z,4626.00
2023-05-09T09:25:29.679Z,4973.00
2023-05-09T09:26:29.731Z,5569.00
2023-05-09T09:27:29.636Z,5275.00
2023-05-09T09:28:29.681Z,5032.00
2023-05-09T09:29:29.637Z,5034.00
2023-05-09T09:30:29.596Z,5219.00
2023-05-09T09:31:29.618Z,5443.00
2023-05-09T09:32:29.603Z,6596.00
2023-05-09T09:33:29.639Z,5564.00
2023-05-09T09:34:29.577Z,5407.00
2023-05-09T09:35:29.597Z,5462.00
2023-05-09T09:36:29.575Z,5695.00
2023-05-09T09:37:29.593Z,6815.00
2023-05-09T09:38:29.541Z,5651.00
2023-05-09T09:39:29.572Z,5278.00
2023-05-09T09:40:29.544Z,5147.00
2023-05-09T09:41:29.576Z,5006.00
2023-05-09T09:42:29.656Z,4985.00
2023-05-09T09:43:29.560Z,4955.00
2023-05-09T09:44:29.502Z,5028.00
2023-05-09T09:45:29.512Z,5131.00
2023-05-09T09:46:29.520Z,5337.00
2023-05-09T09:47:29.517Z,5701.00
2023-05-09T09:48:29.497Z,5736.00
2023-05-09T09:49:29.492Z,5565.00
2023-05-09T09:50:29.468Z,6002.00
2023-05-09T09:51:29.463Z,7035.00
2023-05-09T09:52:29.454Z,7520.00
2023-05-09T09:53:29.487Z,8048.00
2023-05-09T09:54:29.476Z,5954.00
2023-05-09T09:55:29.444Z,6568.00
2023-05-09T09:56:29.429Z,6597.00
2023-05-09T09:57:29.442Z,7095.00
2023-05-09T09:58:29.532Z,5586.00
2023-05-09T09:59:29.451Z,5249.00
2023-05-09T10:00:29.392Z,5090.00
2023-05-09T10:01:29.481Z,5128.00
2023-05-09T10:02:29.384Z,5011.00
2023-05-09T10:03:29.416Z,5052.00
2023-05-09T10:04:29.352Z,4963.00
2023-05-09T10:05:29.404Z,4919.00
2023-05-09T10:06:29.343Z,4792.00
2023-05-09T10:07:29.369Z,4601.00
2023-05-09T10:08:29.351Z,4462.00
2023-05-09T10:09:29.353Z,4330.00
2023-05-09T10:10:29.314Z,4253.00
2023-05-09T10:11:29.360Z,4229.00
2023-05-09T10:12:29.313Z,4207.00
2023-05-09T10:13:29.378Z,4191.00
2023-05-09T10:14:29.375Z,4241.00
2023-05-09T10:15:33.459Z,4314.00
2023-05-09T10:16:40.135Z,4427.00
2023-05-09T10:17:30.430Z,4549.00
2023-05-09T10:18:29.511Z,4621.00
2023-05-09T10:19:29.275Z,4643.00
2023-05-09T10:20:29.246Z,4653.00
2023-05-09T10:21:29.285Z,4647.00
2023-05-09T10:22:29.239Z,4611.00
2023-05-09T10:23:29.238Z,4602.00
2023-05-09T10:24:29.224Z,4651.00
2023-05-09T10:25:29.225Z,4746.00
2023-05-09T10:26:29.251Z,4816.00
2023-05-09T10:27:29.234Z,4855.00
2023-05-09T10:28:29.186Z,4889.00
2023-05-09T10:29:29.229Z,4955.00
2023-05-09T10:30:29.383Z,4996.00
2023-05-09T10:31:29.530Z,4972.00
2023-05-09T10:32:29.162Z,4989.00
2023-05-09T10:33:29.173Z,5173.00
2023-05-09T10:34:29.174Z,5382.00
2023-05-09T10:35:29.161Z,5401.00
2023-05-09T10:36:29.138Z,5536.00
2023-05-09T10:37:29.584Z,5156.00
2023-05-09T10:38:29.131Z,5163.00
2023-05-09T10:39:29.171Z,5147.00
2023-05-09T10:40:29.097Z,4939.00
2023-05-09T10:41:29.106Z,5119.00
2023-05-09T10:42:29.094Z,4930.00
2023-05-09T10:43:29.467Z,4941.00
2023-05-09T10:44:29.081Z,4759.00
2023-05-09T10:45:29.116Z,4752.00
2023-05-09T10:46:29.188Z,4914.00
2023-05-09T10:47:29.116Z,4769.00
2023-05-09T10:48:29.046Z,4658.00
2023-05-09T10:49:29.051Z,4525.00
2023-05-09T10:50:29.021Z,4470.00
2023-05-09T10:51:29.097Z,4873.00
2023-05-09T10:52:29.014Z,5229.00
2023-05-09T10:53:29.033Z,4310.00
2023-05-09T10:54:30.899Z,3946.00
2023-05-09T10:55:29.022Z,3801.00
2023-05-09T10:56:29.014Z,3832.00
2023-05-09T10:57:29.032Z,3988.00
2023-05-09T10:58:28.987Z,3975.00
2023-05-09T10:59:28.988Z,4703.00
2023-05-09T11:00:28.967Z,4113.00
2023-05-09T11:01:29.025Z,4394.00
2023-05-09T11:02:29.137Z,4609.00
2023-05-09T11:03:29.042Z,5103.00
2023-05-09T11:04:28.980Z,5056.00
2023-05-09T11:05:28.970Z,5027.00
2023-05-09T11:06:28.940Z,4892.00
2023-05-09T11:07:28.932Z,4665.00
2023-05-09T11:08:28.935Z,4223.00
2023-05-09T11:09:28.948Z,4444.00
2023-05-09T11:10:28.890Z,4476.00
2023-05-09T11:11:28.918Z,4404.00
2023-05-09T11:12:28.888Z,5014.00
2023-05-09T11:13:28.928Z,4886.00
2023-05-09T11:14:28.881Z,4496.00
2023-05-09T11:15:28.895Z,4435.00
2023-05-09T11:16:28.907Z,4574.00
2023-05-09T11:17:28.901Z,4979.00
2023-05-09T11:18:28.933Z,5118.00
2023-05-09T11:19:28.848Z,5035.00
2023-05-09T11:20:28.824Z,4560.00
2023-05-09T11:21:28.856Z,4334.00
2023-05-09T11:22:28.838Z,4128.00
2023-05-09T11:23:28.826Z,4127.00
2023-05-09T11:24:28.803Z,4118.00
2023-05-09T11:25:28.848Z,4126.00
2023-05-09T11:26:28.796Z,4105.00
2023-05-09T11:27:28.798Z,4041.00
2023-05-09T11:28:28.822Z,3978.00
2023-05-09T11:29:28.804Z,3967.00
2023-05-09T11:30:28.787Z,3984.00
2023-05-09T11:31:28.806Z,4019.00
2023-05-09T11:32:28.791Z,4080.00
2023-05-09T11:33:28.808Z,4113.00
2023-05-09T11:34:28.843Z,4144.00
2023-05-09T11:35:28.807Z,4187.00
2023-05-09T11:36:28.727Z,4224.00
2023-05-09T11:37:28.732Z,4313.00
2023-05-09T11:38:28.715Z,4386.00
2023-05-09T11:39:28.717Z,4628.00
2023-05-09T11:40:28.709Z,4474.00
2023-05-09T11:41:28.755Z,4545.00
2023-05-09T11:42:28.679Z,4515.00
2023-05-09T11:43:28.692Z,4611.00
2023-05-09T11:44:28.689Z,4617.00
2023-05-09T11:45:28.714Z,4726.00
2023-05-09T11:46:28.700Z,4903.00
2023-05-09T11:47:28.737Z,4588.00
2023-05-09T11:48:28.655Z,4631.00
2023-05-09T11:49:28.642Z,4716.00
2023-05-09T11:50:28.723Z,4994.00
2023-05-09T11:51:28.635Z,4942.00
2023-05-09T11:52:28.620Z,4572.00
2023-05-09T11:53:28.640Z,4831.00
2023-05-09T11:54:28.606Z,4804.00
2023-05-09T11:55:28.636Z,4604.00
2023-05-09T11:56:28.602Z,4566.00
2023-05-09T11:57:28.590Z,4428.00
2023-05-09T11:58:28.567Z,4502.00
2023-05-09T11:59:28.573Z,4485.00
2023-05-09T12:00:28.575Z,4441.00
2023-05-09T12:01:28.585Z,4405.00
2023-05-09T12:02:28.608Z,4310.00
2023-05-09T12:03:28.772Z,4197.00
2023-05-09T12:04:28.555Z,4081.00
2023-05-09T12:05:28.556Z,3851.00
2023-05-09T12:06:28.617Z,4147.00
2023-05-09T12:07:28.522Z,4116.00
2023-05-09T12:08:28.534Z,4170.00
2023-05-09T12:09:28.527Z,4120.00
2023-05-09T12:10:28.498Z,4116.00
2023-05-09T12:11:28.510Z,4073.00
2023-05-09T12:12:28.500Z,4046.00
2023-05-09T12:13:28.539Z,4008.00
2023-05-09T12:14:28.480Z,4037.00
2023-05-09T12:15:28.465Z,4027.00
2023-05-09T12:16:28.501Z,3987.00
2023-05-09T12:17:28.466Z,3906.00
2023-05-09T12:18:28.449Z,3660.00
2023-05-09T12:19:28.475Z,3539.00
2023-05-09T12:20:28.424Z,3408.00
2023-05-09T12:21:28.434Z,3353.00
2023-05-09T12:22:28.497Z,3294.00
2023-05-09T12:23:28.434Z,3261.00